createdAt,value
2018-04-16T00:00:21.929Z,11.50
2018-04-16T00:02:48.438Z,12.37
2018-04-16T00:05:15.696Z,12.67
2018-04-16T00:07:42.180Z,12.70
2018-04-16T00:10:08.719Z,12.43
2018-04-16T00:12:35.163Z,12.30
2018-04-16T00:15:01.708Z,13.20
2018-04-16T00:17:28.177Z,13.37
2018-04-16T00:19:55.382Z,12.30
2018-04-16T00:22:21.880Z,12.97
2018-04-16T00:24:48.347Z,13.70
2018-04-16T00:27:14.928Z,13.40
2018-04-16T00:29:42.173Z,13.20
2018-04-16T00:32:15.506Z,13.10
2018-04-16T00:34:47.930Z,13.80
2018-04-16T00:37:20.518Z,14.60
2018-04-16T00:39:53.915Z,14.37
2018-04-16T00:42:27.043Z,14.23
2018-04-16T00:44:59.496Z,14.47
2018-04-16T00:47:31.909Z,13.30
2018-04-16T00:50:04.237Z,12.20
2018-04-16T00:52:36.611Z,13.07
2018-04-16T00:55:08.985Z,10.70
2018-04-16T01:00:57.220Z,15.93
2018-04-16T01:03:29.751Z,12.67
2018-04-16T01:06:02.281Z,12.20
2018-04-16T01:11:37.067Z,14.13
2018-04-16T01:14:09.534Z,16.43
2018-04-16T01:16:42.004Z,16.10
2018-04-16T01:19:14.392Z,16.53
2018-04-16T01:21:46.961Z,14.93
2018-04-16T01:24:19.496Z,17.67
2018-04-16T01:26:52.862Z,17.10
2018-04-16T01:29:25.413Z,16.00
2018-04-16T01:31:57.765Z,15.77
2018-04-16T01:34:30.113Z,18.23
2018-04-16T01:37:03.290Z,17.57
2018-04-16T01:39:35.617Z,17.07
2018-04-16T01:42:08.099Z,18.30
2018-04-16T01:44:40.462Z,17.60
2018-04-16T01:47:12.821Z,17.07
2018-04-16T01:49:45.170Z,16.83
2018-04-16T01:52:17.751Z,16.67
2018-04-16T01:54:50.853Z,17.40
2018-04-16T01:57:24.021Z,18.57
2018-04-16T01:59:57.371Z,17.67
2018-04-16T02:02:29.747Z,17.07
2018-04-16T02:05:02.145Z,18.13
2018-04-16T02:07:34.634Z,19.13
2018-04-16T02:10:07.044Z,25.13
2018-04-16T02:15:41.093Z,21.13
2018-04-16T02:18:13.697Z,17.93
2018-04-16T02:20:46.416Z,19.03
2018-04-16T02:23:19.770Z,18.97
2018-04-16T02:25:52.124Z,18.87
2018-04-16T02:28:24.733Z,19.43
2018-04-16T02:30:57.421Z,18.87
2018-04-16T02:33:29.965Z,20.10
2018-04-16T02:36:02.621Z,19.50
2018-04-16T02:38:35.025Z,18.17
2018-04-16T02:41:07.351Z,17.50
2018-04-16T02:43:39.731Z,14.73
2018-04-16T02:46:12.156Z,19.70
2018-04-16T02:48:44.828Z,19.40
2018-04-16T02:51:17.986Z,20.63
2018-04-16T02:56:57.025Z,21.07
2018-04-16T02:59:29.603Z,21.40
2018-04-16T03:02:02.003Z,20.93
2018-04-16T03:04:34.601Z,18.43
2018-04-16T03:10:14.760Z,21.13
2018-04-16T03:12:47.184Z,20.10
2018-04-16T03:15:20.400Z,21.70
2018-04-16T03:17:52.916Z,19.87
2018-04-16T03:20:25.374Z,20.17
2018-04-16T03:22:58.944Z,21.50
2018-04-16T03:25:31.350Z,20.60
2018-04-16T03:28:03.818Z,19.07
2018-04-16T03:30:36.141Z,20.70
2018-04-16T03:33:08.592Z,20.17
2018-04-16T03:35:40.925Z,22.47
2018-04-16T03:38:13.262Z,20.30
2018-04-16T03:40:45.916Z,20.90
2018-04-16T03:43:18.245Z,22.50
2018-04-16T03:45:51.017Z,21.57
2018-04-16T03:48:23.490Z,20.63
2018-04-16T03:50:56.003Z,21.87
2018-04-16T03:53:26.237Z,19.10
2018-04-16T03:55:55.641Z,21.20
2018-04-16T03:58:22.222Z,21.20
2018-04-16T04:00:48.713Z,20.10
2018-04-16T04:03:15.248Z,17.57
2018-04-16T04:05:42.030Z,20.80
2018-04-16T04:08:08.556Z,20.60
2018-04-16T04:10:35.454Z,21.27
2018-04-16T04:13:02.787Z,17.30
2018-04-16T04:15:29.221Z,19.70
2018-04-16T04:17:55.664Z,19.87
2018-04-16T04:20:22.165Z,21.17
2018-04-16T04:23:00.897Z,21.37
2018-04-16T04:25:39.605Z,21.27
2018-04-16T04:28:18.203Z,19.73
2018-04-16T04:30:45.413Z,22.50
2018-04-16T04:33:11.856Z,19.57
2018-04-16T04:35:38.332Z,22.30
2018-04-16T04:38:04.805Z,20.57
2018-04-16T04:40:31.269Z,23.70
2018-04-16T04:42:58.498Z,21.13
2018-04-16T04:45:25.010Z,20.00
2018-04-16T04:47:51.542Z,19.80
2018-04-16T04:50:17.998Z,21.43
2018-04-16T04:52:44.494Z,18.90
2018-04-16T04:55:10.989Z,19.80
2018-04-16T04:57:37.504Z,18.87
2018-04-16T05:00:03.957Z,19.53
2018-04-16T05:02:31.225Z,20.37
2018-04-16T05:04:58.477Z,20.33
2018-04-16T05:07:25.010Z,20.23
2018-04-16T05:09:52.250Z,18.90
2018-04-16T05:12:19.519Z,18.60
2018-04-16T05:14:46.750Z,20.63
2018-04-16T05:17:13.273Z,19.17
2018-04-16T05:19:39.931Z,19.83
2018-04-16T05:22:07.194Z,20.07
2018-04-16T05:24:34.675Z,19.13
2018-04-16T05:27:01.370Z,17.43
2018-04-16T05:29:28.810Z,17.53
2018-04-16T05:31:55.933Z,17.73
2018-04-16T05:34:22.765Z,18.43
2018-04-16T05:36:49.712Z,16.80
2018-04-16T05:39:16.705Z,17.93
2018-04-16T05:41:43.247Z,17.10
2018-04-16T05:44:10.498Z,17.80
2018-04-16T05:46:37.025Z,19.23
2018-04-16T05:49:03.488Z,19.03
2018-04-16T05:51:30.082Z,17.43
2018-04-16T05:54:03.288Z,13.23
2018-04-16T05:56:29.914Z,13.67
2018-04-16T05:58:56.413Z,18.30
2018-04-16T06:01:22.978Z,16.90
2018-04-16T06:03:49.500Z,14.93
2018-04-16T06:06:16.033Z,14.23
2018-04-16T06:08:42.491Z,13.47
2018-04-16T06:11:09.134Z,14.77
2018-04-16T06:13:35.636Z,18.63
2018-04-16T06:16:02.215Z,14.63
2018-04-16T06:18:29.510Z,13.57
2018-04-16T06:20:56.032Z,12.23
2018-04-16T06:23:22.643Z,16.23
2018-04-16T06:25:49.147Z,15.60
2018-04-16T06:28:15.780Z,15.93
2018-04-16T06:30:42.435Z,14.10
2018-04-16T06:33:08.909Z,13.73
2018-04-16T06:35:35.505Z,11.23
2018-04-16T06:38:01.976Z,15.73
2018-04-16T06:40:28.543Z,13.93
2018-04-16T06:42:54.997Z,14.60
2018-04-16T06:45:21.882Z,14.33
2018-04-16T06:47:49.196Z,13.60
2018-04-16T06:50:15.694Z,15.17
2018-04-16T06:52:42.201Z,15.57
2018-04-16T06:55:09.584Z,14.07
2018-04-16T06:57:36.069Z,15.07
2018-04-16T07:00:02.603Z,17.17
2018-04-16T07:02:29.856Z,16.00
2018-04-16T07:04:56.319Z,16.07
2018-04-16T07:07:22.834Z,15.30
2018-04-16T07:09:50.140Z,14.43
2018-04-16T07:12:16.750Z,14.93
2018-04-16T07:14:44.059Z,18.97
2018-04-16T07:17:10.823Z,15.33
2018-04-16T07:19:38.090Z,19.87
2018-04-16T07:22:04.621Z,16.30
2018-04-16T07:24:31.861Z,16.00
2018-04-16T07:26:59.277Z,18.40
2018-04-16T07:29:25.787Z,18.37
2018-04-16T07:31:52.321Z,12.20
2018-04-16T07:34:18.817Z,14.20
2018-04-16T07:36:46.107Z,11.27
2018-04-16T07:39:12.575Z,12.57
2018-04-16T07:41:39.103Z,12.40
2018-04-16T07:44:05.730Z,10.07
2018-04-16T07:46:32.218Z,11.63
2018-04-16T07:48:59.560Z,9.47
2018-04-16T07:51:26.158Z,13.53
2018-04-16T07:53:52.677Z,9.83
2018-04-16T07:56:19.153Z,12.53
2018-04-16T07:58:45.698Z,11.23
2018-04-16T08:01:12.919Z,8.43
2018-04-16T08:03:39.425Z,12.17
2018-04-16T08:06:05.943Z,8.53
2018-04-16T08:08:32.462Z,9.50
2018-04-16T08:10:59.822Z,9.93
2018-04-16T08:13:27.149Z,8.00
2018-04-16T08:15:53.648Z,8.23
2018-04-16T08:18:20.203Z,7.63
2018-04-16T08:20:46.692Z,9.07
2018-04-16T08:23:13.946Z,9.97
2018-04-16T08:25:41.193Z,7.83
2018-04-16T08:28:08.456Z,10.73
2018-04-16T08:30:34.985Z,13.57
2018-04-16T08:33:02.190Z,7.23
2018-04-16T08:35:28.693Z,8.60
2018-04-16T08:37:55.213Z,8.73
2018-04-16T08:40:21.765Z,8.23
2018-04-16T08:42:48.198Z,15.23
2018-04-16T08:45:14.730Z,8.17
2018-04-16T08:47:41.181Z,11.53
2018-04-16T08:50:07.696Z,7.73
2018-04-16T08:52:34.248Z,10.90
2018-04-16T08:55:01.475Z,8.10
2018-04-16T08:57:27.998Z,7.00
2018-04-16T08:59:55.301Z,7.50
2018-04-16T09:02:21.845Z,7.33
2018-04-16T09:04:48.381Z,7.80
2018-04-16T09:07:15.033Z,11.17
2018-04-16T09:09:42.394Z,12.17
2018-04-16T09:12:08.906Z,8.03
2018-04-16T09:14:35.491Z,8.90
2018-04-16T09:17:02.626Z,8.53
2018-04-16T09:19:29.978Z,7.97
2018-04-16T09:21:57.319Z,7.87
2018-04-16T09:24:23.912Z,7.77
2018-04-16T09:26:50.420Z,11.73
2018-04-16T09:29:17.040Z,7.60
2018-04-16T09:31:44.488Z,8.90
2018-04-16T09:34:11.730Z,10.67
2018-04-16T09:36:38.946Z,9.67
2018-04-16T09:39:05.530Z,7.40
2018-04-16T09:41:32.888Z,7.90
2018-04-16T09:44:00.272Z,7.83
2018-04-16T09:46:26.717Z,9.77
2018-04-16T09:48:53.213Z,8.70
2018-04-16T09:51:20.590Z,8.33
2018-04-16T09:53:47.049Z,9.67
2018-04-16T09:56:14.418Z,8.10
2018-04-16T09:58:42.351Z,9.60
2018-04-16T10:01:14.993Z,11.40
2018-04-16T10:03:42.241Z,9.37
2018-04-16T10:06:09.042Z,8.67
2018-04-16T10:08:35.514Z,9.13
2018-04-16T10:11:02.213Z,8.87
2018-04-16T10:13:29.717Z,9.27
2018-04-16T10:15:56.317Z,11.20
2018-04-16T10:18:22.852Z,9.60
2018-04-16T10:20:49.362Z,8.30
2018-04-16T10:23:17.482Z,7.93
2018-04-16T10:25:44.001Z,7.80
2018-04-16T10:28:10.547Z,8.50
2018-04-16T10:30:37.261Z,7.80
2018-04-16T10:33:03.778Z,8.20
2018-04-16T10:35:30.378Z,7.83
2018-04-16T10:37:56.909Z,6.80
2018-04-16T10:40:23.729Z,6.90
2018-04-16T10:42:50.375Z,7.33
2018-04-16T10:45:17.212Z,7.80
2018-04-16T10:47:43.857Z,7.40
2018-04-16T10:50:10.466Z,7.87
2018-04-16T10:52:37.233Z,7.50
2018-04-16T10:55:03.834Z,7.00
2018-04-16T10:57:30.396Z,7.47
2018-04-16T10:59:56.921Z,6.60
2018-04-16T11:02:23.382Z,7.20
2018-04-16T11:04:49.882Z,6.70
2018-04-16T11:07:16.676Z,6.60
2018-04-16T11:09:44.090Z,6.60
2018-04-16T11:12:10.893Z,6.40
2018-04-16T11:14:37.373Z,5.30
2018-04-16T11:17:03.919Z,5.33
2018-04-16T11:19:30.548Z,8.73
2018-04-16T11:21:57.233Z,6.30
2018-04-16T11:24:24.881Z,8.23
2018-04-16T11:26:52.233Z,6.67
2018-04-16T11:29:19.605Z,5.80
2018-04-16T11:31:46.871Z,5.90
2018-04-16T11:34:13.472Z,4.87
2018-04-16T11:36:40.009Z,4.73
2018-04-16T11:39:08.469Z,5.03
2018-04-16T11:41:34.971Z,6.00
2018-04-16T11:44:01.535Z,4.80
2018-04-16T11:46:28.059Z,4.50
2018-04-16T11:48:54.546Z,5.20
2018-04-16T11:51:21.870Z,5.40
2018-04-16T11:53:48.523Z,4.73
2018-04-16T11:56:15.725Z,5.40
2018-04-16T11:58:42.217Z,6.03
2018-04-16T12:01:09.439Z,6.13
2018-04-16T12:03:35.947Z,5.43
2018-04-16T12:06:02.417Z,4.77
2018-04-16T12:08:28.962Z,6.20
2018-04-16T12:10:56.221Z,5.20
2018-04-16T12:13:23.653Z,5.33
2018-04-16T12:15:50.109Z,5.03
2018-04-16T12:18:17.307Z,5.30
2018-04-16T12:20:43.783Z,6.00
2018-04-16T12:23:11.013Z,5.60
2018-04-16T12:25:37.514Z,6.03
2018-04-16T12:28:03.995Z,5.17
2018-04-16T12:30:30.474Z,5.63
2018-04-16T12:32:57.233Z,5.00
2018-04-16T12:35:23.818Z,4.40
2018-04-16T12:37:51.121Z,5.13
2018-04-16T12:40:17.644Z,4.50
2018-04-16T12:42:44.182Z,4.70
2018-04-16T12:45:12.039Z,4.57
2018-04-16T12:47:38.641Z,4.20
2018-04-16T12:50:05.898Z,4.00
2018-04-16T12:52:33.176Z,5.47
2018-04-16T12:54:59.745Z,4.30
2018-04-16T12:57:26.335Z,5.20
2018-04-16T12:59:53.783Z,4.17
2018-04-16T13:02:21.189Z,4.60
2018-04-16T13:04:47.688Z,5.63
2018-04-16T13:07:14.428Z,5.13
2018-04-16T13:09:41.789Z,5.00
2018-04-16T13:12:08.356Z,3.83
2018-04-16T13:14:35.969Z,5.00
2018-04-16T13:17:03.175Z,4.60
2018-04-16T13:19:29.754Z,4.97
2018-04-16T13:21:57.111Z,4.80
2018-04-16T13:24:24.365Z,4.17
2018-04-16T13:26:51.699Z,4.43
2018-04-16T13:29:18.211Z,5.80
2018-04-16T13:31:44.834Z,6.73
2018-04-16T13:34:11.279Z,5.80
2018-04-16T13:36:37.850Z,4.00
2018-04-16T13:39:05.114Z,4.70
2018-04-16T13:41:32.353Z,5.47
2018-04-16T13:43:59.594Z,6.27
2018-04-16T13:46:26.884Z,4.40
2018-04-16T13:48:53.430Z,7.87
2018-04-16T13:51:19.882Z,4.00
2018-04-16T13:53:46.431Z,3.50
2018-04-16T13:56:12.890Z,3.67
2018-04-16T13:58:39.387Z,3.10
2018-04-16T14:01:05.873Z,2.87
2018-04-16T14:03:33.153Z,4.40
2018-04-16T14:05:59.666Z,3.53
2018-04-16T14:08:26.149Z,2.67
2018-04-16T14:10:54.329Z,3.13
2018-04-16T14:13:20.885Z,3.00
2018-04-16T14:15:47.424Z,5.47
2018-04-16T14:18:13.950Z,2.27
2018-04-16T14:20:40.493Z,3.17
2018-04-16T14:23:07.010Z,2.90
2018-04-16T14:25:33.469Z,2.30
2018-04-16T14:28:00.738Z,2.80
2018-04-16T14:30:28.082Z,2.20
2018-04-16T14:32:55.369Z,2.53
2018-04-16T14:35:21.881Z,3.37
2018-04-16T14:37:49.062Z,2.67
2018-04-16T14:40:15.665Z,1.90
2018-04-16T14:42:42.158Z,1.50
2018-04-16T14:45:08.756Z,1.90
2018-04-16T14:47:35.330Z,1.60
2018-04-16T14:50:01.902Z,1.67
2018-04-16T14:52:29.221Z,2.13
2018-04-16T14:54:56.086Z,1.57
2018-04-16T14:57:22.562Z,3.83
2018-04-16T14:59:49.180Z,1.80
2018-04-16T15:02:15.804Z,1.97
2018-04-16T15:04:42.418Z,2.80
2018-04-16T15:07:08.917Z,2.20
2018-04-16T15:09:35.669Z,2.10
2018-04-16T15:12:02.175Z,5.30
2018-04-16T15:14:28.644Z,2.43
2018-04-16T15:16:57.095Z,2.50
2018-04-16T15:19:23.573Z,1.80
2018-04-16T15:21:50.865Z,2.77
2018-04-16T15:24:17.550Z,2.70
2018-04-16T15:26:44.100Z,4.23
2018-04-16T15:29:10.653Z,5.50
2018-04-16T15:31:37.165Z,3.90
2018-04-16T15:34:03.945Z,4.13
2018-04-16T15:36:31.269Z,4.00
2018-04-16T15:38:57.974Z,3.97
2018-04-16T15:41:24.518Z,7.13
2018-04-16T15:43:51.119Z,3.77
2018-04-16T15:46:17.610Z,4.27
2018-04-16T15:48:44.122Z,4.17
2018-04-16T15:51:10.653Z,3.30
2018-04-16T15:53:37.334Z,4.10
2018-04-16T15:56:04.653Z,3.13
2018-04-16T15:58:31.302Z,3.60
2018-04-16T16:00:57.906Z,3.37
2018-04-16T16:03:24.529Z,3.97
2018-04-16T16:05:50.998Z,3.70
2018-04-16T16:08:17.641Z,6.20
2018-04-16T16:10:44.310Z,3.17
2018-04-16T16:13:11.586Z,3.23
2018-04-16T16:15:38.827Z,3.00
2018-04-16T16:18:05.395Z,2.73
2018-04-16T16:20:31.959Z,4.00
2018-04-16T16:22:58.724Z,5.20
2018-04-16T16:25:25.304Z,3.80
2018-04-16T16:27:51.849Z,4.83
2018-04-16T16:30:18.306Z,4.50
2018-04-16T16:32:44.833Z,3.80
2018-04-16T16:35:11.351Z,5.63
2018-04-16T16:37:37.862Z,4.57
2018-04-16T16:40:04.407Z,4.13
2018-04-16T16:42:31.022Z,3.83
2018-04-16T16:44:58.282Z,5.10
2018-04-16T16:47:24.795Z,3.80
2018-04-16T16:49:51.254Z,4.23
2018-04-16T16:52:17.779Z,4.77
2018-04-16T16:54:45.874Z,7.27
2018-04-16T16:57:12.585Z,8.13
2018-04-16T16:59:39.868Z,4.23
2018-04-16T17:02:06.419Z,7.10
2018-04-16T17:04:33.002Z,9.00
2018-04-16T17:06:59.627Z,4.30
2018-04-16T17:09:26.186Z,5.20
2018-04-16T17:11:53.477Z,3.70
2018-04-16T17:14:19.993Z,4.53
2018-04-16T17:16:46.505Z,4.40
2018-04-16T17:19:13.919Z,4.37
2018-04-16T17:21:40.402Z,7.03
2018-04-16T17:24:07.735Z,2.90
2018-04-16T17:26:35.030Z,6.50
2018-04-16T17:29:01.564Z,6.07
2018-04-16T17:31:28.019Z,8.07
2018-04-16T17:33:54.554Z,12.03
2018-04-16T17:36:21.093Z,12.67
2018-04-16T17:38:47.848Z,7.17
2018-04-16T17:41:14.389Z,5.30
2018-04-16T17:43:40.952Z,9.30
2018-04-16T17:46:22.194Z,6.30
2018-04-16T17:48:49.930Z,5.43
2018-04-16T17:51:16.552Z,6.63
2018-04-16T17:53:43.009Z,5.63
2018-04-16T17:56:09.593Z,5.40
2018-04-16T17:58:36.054Z,7.23
2018-04-16T18:01:02.627Z,6.83
2018-04-16T18:03:29.132Z,7.10
2018-04-16T18:05:55.657Z,6.40
2018-04-16T18:08:22.967Z,6.47
2018-04-16T18:10:49.570Z,5.70
2018-04-16T18:13:16.183Z,6.30
2018-04-16T18:15:43.400Z,7.57
2018-04-16T18:18:09.943Z,10.10
2018-04-16T18:20:36.510Z,9.67
2018-04-16T18:23:03.110Z,8.30
2018-04-16T18:25:29.684Z,8.33
2018-04-16T18:27:56.421Z,9.00
2018-04-16T18:30:22.983Z,10.40
2018-04-16T18:32:49.602Z,6.77
2018-04-16T18:35:16.209Z,10.43
2018-04-16T18:37:43.512Z,10.97
2018-04-16T18:40:10.075Z,5.53
2018-04-16T18:42:36.583Z,7.13
2018-04-16T18:45:03.192Z,5.80
2018-04-16T18:47:29.685Z,5.30
2018-04-16T18:49:56.203Z,6.43
2018-04-16T18:52:22.839Z,5.07
2018-04-16T18:54:49.415Z,4.43
2018-04-16T18:57:16.746Z,8.70
2018-04-16T18:59:43.277Z,7.23
2018-04-16T19:02:09.808Z,8.77
2018-04-16T19:04:36.451Z,6.30
2018-04-16T19:07:02.987Z,5.50
2018-04-16T19:09:29.689Z,3.80
2018-04-16T19:11:56.262Z,6.97
2018-04-16T19:14:22.773Z,5.63
2018-04-16T19:16:49.397Z,5.00
2018-04-16T19:19:15.911Z,5.83
2018-04-16T19:21:49.164Z,5.80
2018-04-16T19:24:15.956Z,6.37
2018-04-16T19:26:48.563Z,8.13
2018-04-16T19:29:29.903Z,5.27
2018-04-16T19:31:56.873Z,6.57
2018-04-16T19:34:29.582Z,7.73
2018-04-16T19:36:56.163Z,9.50
2018-04-16T19:39:23.416Z,9.93
2018-04-16T19:41:56.912Z,8.40
2018-04-16T19:44:24.322Z,7.90
2018-04-16T19:46:50.894Z,8.53
2018-04-16T19:49:24.124Z,10.20
2018-04-16T19:51:50.700Z,10.13
2018-04-16T19:54:17.243Z,9.73
2018-04-16T19:56:49.800Z,7.27
2018-04-16T19:59:18.620Z,7.67
2018-04-16T20:04:47.632Z,9.10
2018-04-16T20:07:14.093Z,8.10
2018-04-16T20:09:40.628Z,6.53
2018-04-16T20:12:08.064Z,9.80
2018-04-16T20:14:34.586Z,7.10
2018-04-16T20:17:04.448Z,6.87
2018-04-16T20:19:30.938Z,7.53
2018-04-16T20:21:57.415Z,7.10
2018-04-16T20:24:24.638Z,7.57
2018-04-16T20:26:51.106Z,8.83
2018-04-16T20:29:18.332Z,8.37
2018-04-16T20:31:45.097Z,9.13
2018-04-16T20:34:12.594Z,9.90
2018-04-16T20:36:39.257Z,7.90
2018-04-16T20:39:05.771Z,8.10
2018-04-16T20:41:33.220Z,10.00
2018-04-16T20:43:59.707Z,7.03
2018-04-16T20:46:26.235Z,7.77
2018-04-16T20:48:52.769Z,7.67
2018-04-16T20:51:19.326Z,7.70
2018-04-16T20:53:45.872Z,7.40
2018-04-16T20:56:13.192Z,8.50
2018-04-16T20:58:40.120Z,8.10
2018-04-16T21:01:06.658Z,7.20
2018-04-16T21:03:33.201Z,7.27
2018-04-16T21:05:59.844Z,8.10
2018-04-16T21:08:26.497Z,8.10
2018-04-16T21:10:53.793Z,8.60
2018-04-16T21:13:20.280Z,7.93
2018-04-16T21:15:47.488Z,7.83
2018-04-16T21:18:14.009Z,8.70
2018-04-16T21:20:40.455Z,11.20
2018-04-16T21:23:06.960Z,7.33
2018-04-16T21:25:33.426Z,9.30
2018-04-16T21:27:59.912Z,11.50
2018-04-16T21:30:26.377Z,12.87
2018-04-16T21:32:52.969Z,13.70
2018-04-16T21:35:19.473Z,12.80
2018-04-16T21:37:45.981Z,11.10
2018-04-16T21:40:12.473Z,9.50
2018-04-16T21:42:39.649Z,9.50
2018-04-16T21:45:06.171Z,9.10
2018-04-16T21:47:32.599Z,11.30
2018-04-16T21:49:59.160Z,11.27
2018-04-16T21:52:25.829Z,9.23
2018-04-16T21:54:53.079Z,12.73
2018-04-16T21:57:26.514Z,10.13
2018-04-16T21:59:53.765Z,10.10
2018-04-16T22:02:20.898Z,9.57
2018-04-16T22:04:48.070Z,8.67
2018-04-16T22:07:15.259Z,7.20
2018-04-16T22:09:41.714Z,7.20
2018-04-16T22:12:09.548Z,9.53
2018-04-16T22:14:35.948Z,11.27
2018-04-16T22:17:02.500Z,8.33
2018-04-16T22:19:28.881Z,10.77
2018-04-16T22:21:55.352Z,9.17
2018-04-16T22:24:21.788Z,9.63
2018-04-16T22:26:48.272Z,9.57
2018-04-16T22:29:14.696Z,9.20
2018-04-16T22:31:41.203Z,8.77
2018-04-16T22:34:07.651Z,8.90
2018-04-16T22:36:34.262Z,9.70
2018-04-16T22:39:00.715Z,10.03
2018-04-16T22:41:27.142Z,8.50
2018-04-16T22:43:53.586Z,8.20
2018-04-16T22:46:19.982Z,9.20
2018-04-16T22:48:46.415Z,8.77
2018-04-16T22:51:12.859Z,8.93
2018-04-16T22:53:39.308Z,8.83
2018-04-16T22:56:05.806Z,9.20
2018-04-16T22:58:32.972Z,8.40
2018-04-16T23:00:59.361Z,12.87
2018-04-16T23:03:25.755Z,8.13
2018-04-16T23:05:52.326Z,8.50
2018-04-16T23:08:18.715Z,8.90
2018-04-16T23:10:48.202Z,8.40
2018-04-16T23:13:14.599Z,8.00
2018-04-16T23:15:41.812Z,8.17
2018-04-16T23:18:08.239Z,8.43
2018-04-16T23:20:34.765Z,7.90
2018-04-16T23:23:01.182Z,8.17
2018-04-16T23:25:27.628Z,8.20
2018-04-16T23:27:54.059Z,10.77
2018-04-16T23:30:20.527Z,8.57
2018-04-16T23:32:46.917Z,10.10
2018-04-16T23:35:13.360Z,9.90
2018-04-16T23:37:39.771Z,9.00
2018-04-16T23:40:06.326Z,8.87
2018-04-16T23:42:32.731Z,7.60
2018-04-16T23:44:59.911Z,8.17
2018-04-16T23:47:26.442Z,8.27
2018-04-16T23:49:52.831Z,9.07
2018-04-16T23:52:19.264Z,8.67
2018-04-16T23:54:45.644Z,7.97
2018-04-16T23:57:12.261Z,8.03
2018-04-16T23:59:38.678Z,8.80
